sensor_id;sensor_type;location;lat;lon;timestamp;P1;durP1;ratioP1;P2;durP2;ratioP2
38358;SDS011;42072;48.044;14.416;2023-04-27T00:01:12;13.85;;;7.38;;
38358;SDS011;42072;48.044;14.416;2023-04-27T00:03:40;12.50;;;7.30;;
38358;SDS011;42072;48.044;14.416;2023-04-27T00:06:08;12.00;;;7.53;;
38358;SDS011;42072;48.044;14.416;2023-04-27T00:08:35;12.88;;;7.63;;
38358;SDS011;42072;48.044;14.416;2023-04-27T00:11:02;13.02;;;7.03;;
38358;SDS011;42072;48.044;14.416;2023-04-27T00:13:30;12.07;;;7.15;;
38358;SDS011;42072;48.044;14.416;2023-04-27T00:15:57;14.00;;;7.38;;
38358;SDS011;42072;48.044;14.416;2023-04-27T00:18:29;13.65;;;7.32;;
38358;SDS011;42072;48.044;14.416;2023-04-27T00:20:56;15.20;;;7.00;;
38358;SDS011;42072;48.044;14.416;2023-04-27T00:23:24;11.68;;;7.00;;
38358;SDS011;42072;48.044;14.416;2023-04-27T00:25:51;11.05;;;6.97;;
38358;SDS011;42072;48.044;14.416;2023-04-27T00:28:19;10.40;;;6.38;;
38358;SDS011;42072;48.044;14.416;2023-04-27T00:30:46;11.43;;;6.50;;
38358;SDS011;42072;48.044;14.416;2023-04-27T00:33:15;15.05;;;6.50;;
38358;SDS011;42072;48.044;14.416;2023-04-27T00:35:42;10.40;;;6.10;;
38358;SDS011;42072;48.044;14.416;2023-04-27T00:38:10;11.30;;;6.25;;
38358;SDS011;42072;48.044;14.416;2023-04-27T00:40:37;13.18;;;6.28;;
38358;SDS011;42072;48.044;14.416;2023-04-27T00:43:05;9.88;;;6.57;;
38358;SDS011;42072;48.044;14.416;2023-04-27T00:45:35;9.77;;;6.50;;
38358;SDS011;42072;48.044;14.416;2023-04-27T00:48:11;9.90;;;6.28;;
38358;SDS011;42072;48.044;14.416;2023-04-27T00:50:38;10.32;;;5.90;;
38358;SDS011;42072;48.044;14.416;2023-04-27T00:53:06;8.70;;;5.40;;
38358;SDS011;42072;48.044;14.416;2023-04-27T00:55:33;10.27;;;5.45;;
38358;SDS011;42072;48.044;14.416;2023-04-27T00:58:02;9.23;;;5.78;;
38358;SDS011;42072;48.044;14.416;2023-04-27T01:00:29;8.77;;;5.72;;
38358;SDS011;42072;48.044;14.416;2023-04-27T01:02:58;9.32;;;5.75;;
38358;SDS011;42072;48.044;14.416;2023-04-27T01:05:26;11.95;;;6.32;;
38358;SDS011;42072;48.044;14.416;2023-04-27T01:07:57;10.43;;;6.25;;
38358;SDS011;42072;48.044;14.416;2023-04-27T01:10:24;10.43;;;6.00;;
38358;SDS011;42072;48.044;14.416;2023-04-27T01:12:52;10.50;;;6.57;;
38358;SDS011;42072;48.044;14.416;2023-04-27T01:15:19;11.80;;;6.88;;
38358;SDS011;42072;48.044;14.416;2023-04-27T01:17:46;10.45;;;6.40;;
38358;SDS011;42072;48.044;14.416;2023-04-27T01:20:14;12.18;;;6.75;;
38358;SDS011;42072;48.044;14.416;2023-04-27T01:22:41;10.32;;;7.20;;
38358;SDS011;42072;48.044;14.416;2023-04-27T01:25:08;17.48;;;9.88;;
38358;SDS011;42072;48.044;14.416;2023-04-27T01:27:35;18.13;;;10.55;;
38358;SDS011;42072;48.044;14.416;2023-04-27T01:30:03;24.20;;;11.35;;
38358;SDS011;42072;48.044;14.416;2023-04-27T01:32:30;19.88;;;10.77;;
38358;SDS011;42072;48.044;14.416;2023-04-27T01:34:57;20.05;;;10.80;;
38358;SDS011;42072;48.044;14.416;2023-04-27T01:37:25;20.00;;;10.95;;
38358;SDS011;42072;48.044;14.416;2023-04-27T01:39:52;18.15;;;8.95;;
38358;SDS011;42072;48.044;14.416;2023-04-27T01:42:19;13.05;;;8.85;;
38358;SDS011;42072;48.044;14.416;2023-04-27T01:44:47;17.17;;;8.93;;
38358;SDS011;42072;48.044;14.416;2023-04-27T01:47:14;17.33;;;9.85;;
38358;SDS011;42072;48.044;14.416;2023-04-27T01:49:43;17.00;;;9.10;;
38358;SDS011;42072;48.044;14.416;2023-04-27T01:52:10;17.13;;;9.43;;
38358;SDS011;42072;48.044;14.416;2023-04-27T01:54:37;15.98;;;9.43;;
38358;SDS011;42072;48.044;14.416;2023-04-27T01:57:05;18.70;;;9.13;;
38358;SDS011;42072;48.044;14.416;2023-04-27T01:59:32;9.73;;;6.50;;
38358;SDS011;42072;48.044;14.416;2023-04-27T02:01:59;8.30;;;5.60;;
38358;SDS011;42072;48.044;14.416;2023-04-27T02:04:26;10.25;;;5.47;;
38358;SDS011;42072;48.044;14.416;2023-04-27T02:06:54;7.03;;;5.22;;
38358;SDS011;42072;48.044;14.416;2023-04-27T02:09:21;5.80;;;4.50;;
38358;SDS011;42072;48.044;14.416;2023-04-27T02:11:49;7.78;;;5.03;;
38358;SDS011;42072;48.044;14.416;2023-04-27T02:14:16;9.52;;;5.13;;
38358;SDS011;42072;48.044;14.416;2023-04-27T02:16:43;7.55;;;4.30;;
38358;SDS011;42072;48.044;14.416;2023-04-27T02:19:10;8.38;;;5.00;;
38358;SDS011;42072;48.044;14.416;2023-04-27T02:21:40;8.15;;;5.32;;
38358;SDS011;42072;48.044;14.416;2023-04-27T02:24:08;6.97;;;5.43;;
38358;SDS011;42072;48.044;14.416;2023-04-27T02:26:35;11.10;;;5.55;;
38358;SDS011;42072;48.044;14.416;2023-04-27T02:29:02;8.45;;;5.50;;
38358;SDS011;42072;48.044;14.416;2023-04-27T02:31:30;8.00;;;5.38;;
38358;SDS011;42072;48.044;14.416;2023-04-27T02:33:57;9.07;;;5.28;;
38358;SDS011;42072;48.044;14.416;2023-04-27T02:36:24;9.07;;;6.00;;
38358;SDS011;42072;48.044;14.416;2023-04-27T02:38:53;12.32;;;6.30;;
38358;SDS011;42072;48.044;14.416;2023-04-27T02:41:20;8.32;;;5.45;;
38358;SDS011;42072;48.044;14.416;2023-04-27T02:43:48;8.98;;;5.78;;
38358;SDS011;42072;48.044;14.416;2023-04-27T02:46:16;11.05;;;6.28;;
38358;SDS011;42072;48.044;14.416;2023-04-27T02:48:44;15.35;;;6.45;;
38358;SDS011;42072;48.044;14.416;2023-04-27T02:51:11;10.40;;;6.10;;
38358;SDS011;42072;48.044;14.416;2023-04-27T02:53:38;8.43;;;5.63;;
38358;SDS011;42072;48.044;14.416;2023-04-27T02:56:05;11.40;;;6.32;;
38358;SDS011;42072;48.044;14.416;2023-04-27T02:58:32;11.30;;;6.15;;
38358;SDS011;42072;48.044;14.416;2023-04-27T03:01:00;12.75;;;6.35;;
38358;SDS011;42072;48.044;14.416;2023-04-27T03:03:28;9.52;;;6.15;;
38358;SDS011;42072;48.044;14.416;2023-04-27T03:05:55;9.85;;;5.90;;
38358;SDS011;42072;48.044;14.416;2023-04-27T03:08:22;8.73;;;5.82;;
38358;SDS011;42072;48.044;14.416;2023-04-27T03:10:49;12.02;;;6.15;;
38358;SDS011;42072;48.044;14.416;2023-04-27T03:13:16;10.73;;;5.95;;
38358;SDS011;42072;48.044;14.416;2023-04-27T03:15:44;13.73;;;6.68;;
38358;SDS011;42072;48.044;14.416;2023-04-27T03:18:11;8.13;;;6.50;;
38358;SDS011;42072;48.044;14.416;2023-04-27T03:20:38;9.10;;;6.18;;
38358;SDS011;42072;48.044;14.416;2023-04-27T03:23:05;9.50;;;6.43;;
38358;SDS011;42072;48.044;14.416;2023-04-27T03:25:32;10.90;;;6.53;;
38358;SDS011;42072;48.044;14.416;2023-04-27T03:27:59;13.80;;;7.18;;
38358;SDS011;42072;48.044;14.416;2023-04-27T03:30:26;10.40;;;6.55;;
38358;SDS011;42072;48.044;14.416;2023-04-27T03:32:54;11.05;;;7.00;;
38358;SDS011;42072;48.044;14.416;2023-04-27T03:35:22;10.32;;;7.18;;
38358;SDS011;42072;48.044;14.416;2023-04-27T03:37:49;12.07;;;6.57;;
38358;SDS011;42072;48.044;14.416;2023-04-27T03:40:16;10.18;;;6.95;;
38358;SDS011;42072;48.044;14.416;2023-04-27T03:42:43;16.63;;;7.28;;
38358;SDS011;42072;48.044;14.416;2023-04-27T03:45:10;10.80;;;7.03;;
38358;SDS011;42072;48.044;14.416;2023-04-27T03:47:38;13.73;;;7.07;;
38358;SDS011;42072;48.044;14.416;2023-04-27T03:50:05;9.50;;;7.32;;
38358;SDS011;42072;48.044;14.416;2023-04-27T03:52:32;11.88;;;7.50;;
38358;SDS011;42072;48.044;14.416;2023-04-27T03:55:00;12.57;;;7.90;;
38358;SDS011;42072;48.044;14.416;2023-04-27T03:57:27;11.63;;;7.07;;
38358;SDS011;42072;48.044;14.416;2023-04-27T03:59:54;12.38;;;7.68;;
38358;SDS011;42072;48.044;14.416;2023-04-27T04:02:23;12.55;;;7.75;;
38358;SDS011;42072;48.044;14.416;2023-04-27T04:04:50;16.67;;;8.15;;
38358;SDS011;42072;48.044;14.416;2023-04-27T04:07:17;11.68;;;7.65;;
38358;SDS011;42072;48.044;14.416;2023-04-27T04:09:45;10.73;;;7.45;;
38358;SDS011;42072;48.044;14.416;2023-04-27T04:12:12;17.27;;;7.90;;
38358;SDS011;42072;48.044;14.416;2023-04-27T04:14:39;12.55;;;8.18;;
38358;SDS011;42072;48.044;14.416;2023-04-27T04:17:07;12.02;;;7.85;;
38358;SDS011;42072;48.044;14.416;2023-04-27T04:19:36;11.43;;;7.70;;
38358;SDS011;42072;48.044;14.416;2023-04-27T04:22:03;10.20;;;7.47;;
38358;SDS011;42072;48.044;14.416;2023-04-27T04:24:31;10.45;;;6.88;;
38358;SDS011;42072;48.044;14.416;2023-04-27T04:26:58;14.93;;;7.75;;
38358;SDS011;42072;48.044;14.416;2023-04-27T04:29:25;13.73;;;7.15;;
38358;SDS011;42072;48.044;14.416;2023-04-27T04:31:52;11.13;;;7.55;;
38358;SDS011;42072;48.044;14.416;2023-04-27T04:34:21;9.30;;;6.80;;
38358;SDS011;42072;48.044;14.416;2023-04-27T04:36:48;14.20;;;7.32;;
38358;SDS011;42072;48.044;14.416;2023-04-27T04:39:18;8.80;;;6.47;;
38358;SDS011;42072;48.044;14.416;2023-04-27T04:41:46;11.80;;;6.88;;
38358;SDS011;42072;48.044;14.416;2023-04-27T04:44:15;19.70;;;8.70;;
38358;SDS011;42072;48.044;14.416;2023-04-27T04:46:42;14.95;;;8.02;;
38358;SDS011;42072;48.044;14.416;2023-04-27T04:49:09;15.10;;;7.88;;
38358;SDS011;42072;48.044;14.416;2023-04-27T04:51:40;13.23;;;7.80;;
38358;SDS011;42072;48.044;14.416;2023-04-27T04:54:09;14.23;;;7.88;;
38358;SDS011;42072;48.044;14.416;2023-04-27T04:56:37;9.30;;;6.47;;
38358;SDS011;42072;48.044;14.416;2023-04-27T04:59:04;13.63;;;7.28;;
38358;SDS011;42072;48.044;14.416;2023-04-27T05:01:31;15.02;;;7.30;;
38358;SDS011;42072;48.044;14.416;2023-04-27T05:03:59;14.15;;;7.18;;
38358;SDS011;42072;48.044;14.416;2023-04-27T05:06:26;12.57;;;7.18;;
38358;SDS011;42072;48.044;14.416;2023-04-27T05:08:55;10.07;;;6.55;;
38358;SDS011;42072;48.044;14.416;2023-04-27T05:11:22;9.45;;;6.40;;
38358;SDS011;42072;48.044;14.416;2023-04-27T05:13:49;10.48;;;6.10;;
38358;SDS011;42072;48.044;14.416;2023-04-27T05:16:16;11.27;;;6.32;;
38358;SDS011;42072;48.044;14.416;2023-04-27T05:18:44;15.93;;;6.63;;
38358;SDS011;42072;48.044;14.416;2023-04-27T05:21:14;11.55;;;6.63;;
38358;SDS011;42072;48.044;14.416;2023-04-27T05:23:43;11.35;;;6.70;;
38358;SDS011;42072;48.044;14.416;2023-04-27T05:26:12;11.57;;;6.32;;
38358;SDS011;42072;48.044;14.416;2023-04-27T05:28:41;10.20;;;6.10;;
38358;SDS011;42072;48.044;14.416;2023-04-27T05:31:08;12.90;;;6.25;;
38358;SDS011;42072;48.044;14.416;2023-04-27T05:33:35;13.93;;;7.38;;
38358;SDS011;42072;48.044;14.416;2023-04-27T05:36:02;13.13;;;6.15;;
38358;SDS011;42072;48.044;14.416;2023-04-27T05:38:30;14.77;;;7.82;;
38358;SDS011;42072;48.044;14.416;2023-04-27T05:40:58;16.48;;;7.60;;
38358;SDS011;42072;48.044;14.416;2023-04-27T05:43:26;12.00;;;6.82;;
38358;SDS011;42072;48.044;14.416;2023-04-27T05:45:53;11.30;;;6.15;;
38358;SDS011;42072;48.044;14.416;2023-04-27T05:48:20;11.55;;;6.25;;
38358;SDS011;42072;48.044;14.416;2023-04-27T05:50:47;10.75;;;7.05;;
38358;SDS011;42072;48.044;14.416;2023-04-27T05:53:14;10.68;;;6.75;;
38358;SDS011;42072;48.044;14.416;2023-04-27T05:55:42;15.35;;;6.45;;
38358;SDS011;42072;48.044;14.416;2023-04-27T05:58:09;11.60;;;6.15;;
38358;SDS011;42072;48.044;14.416;2023-04-27T06:00:37;12.63;;;7.18;;
38358;SDS011;42072;48.044;14.416;2023-04-27T06:03:04;11.07;;;6.57;;
38358;SDS011;42072;48.044;14.416;2023-04-27T06:05:31;11.43;;;6.57;;
38358;SDS011;42072;48.044;14.416;2023-04-27T06:08:00;12.80;;;6.28;;
38358;SDS011;42072;48.044;14.416;2023-04-27T06:10:27;12.00;;;6.47;;
38358;SDS011;42072;48.044;14.416;2023-04-27T06:12:54;10.77;;;5.75;;
38358;SDS011;42072;48.044;14.416;2023-04-27T06:15:22;12.48;;;6.05;;
38358;SDS011;42072;48.044;14.416;2023-04-27T06:17:49;8.57;;;5.47;;
38358;SDS011;42072;48.044;14.416;2023-04-27T06:20:16;7.50;;;5.10;;
38358;SDS011;42072;48.044;14.416;2023-04-27T06:22:43;12.63;;;5.70;;
38358;SDS011;42072;48.044;14.416;2023-04-27T06:25:12;10.27;;;5.85;;
38358;SDS011;42072;48.044;14.416;2023-04-27T06:27:39;12.18;;;6.03;;
38358;SDS011;42072;48.044;14.416;2023-04-27T06:30:07;11.65;;;6.43;;
38358;SDS011;42072;48.044;14.416;2023-04-27T06:32:34;13.02;;;5.82;;
38358;SDS011;42072;48.044;14.416;2023-04-27T06:35:02;11.32;;;5.60;;
38358;SDS011;42072;48.044;14.416;2023-04-27T06:37:29;8.35;;;5.72;;
38358;SDS011;42072;48.044;14.416;2023-04-27T06:39:56;9.32;;;5.55;;
38358;SDS011;42072;48.044;14.416;2023-04-27T06:42:23;9.98;;;5.93;;
38358;SDS011;42072;48.044;14.416;2023-04-27T06:44:52;12.25;;;6.07;;
38358;SDS011;42072;48.044;14.416;2023-04-27T06:47:21;12.63;;;6.05;;
38358;SDS011;42072;48.044;14.416;2023-04-27T06:49:48;11.60;;;6.70;;
38358;SDS011;42072;48.044;14.416;2023-04-27T06:52:16;9.23;;;6.03;;
38358;SDS011;42072;48.044;14.416;2023-04-27T06:54:43;11.20;;;6.00;;
38358;SDS011;42072;48.044;14.416;2023-04-27T06:57:11;10.25;;;5.35;;
38358;SDS011;42072;48.044;14.416;2023-04-27T06:59:38;13.90;;;5.85;;
38358;SDS011;42072;48.044;14.416;2023-04-27T07:02:06;10.05;;;6.20;;
38358;SDS011;42072;48.044;14.416;2023-04-27T07:04:33;10.35;;;5.55;;
38358;SDS011;42072;48.044;14.416;2023-04-27T07:07:02;9.80;;;5.45;;
38358;SDS011;42072;48.044;14.416;2023-04-27T07:09:29;12.30;;;5.57;;
38358;SDS011;42072;48.044;14.416;2023-04-27T07:11:56;7.65;;;5.70;;
38358;SDS011;42072;48.044;14.416;2023-04-27T07:14:24;11.80;;;5.93;;
38358;SDS011;42072;48.044;14.416;2023-04-27T07:16:51;7.35;;;5.07;;
38358;SDS011;42072;48.044;14.416;2023-04-27T07:19:18;8.50;;;5.00;;
38358;SDS011;42072;48.044;14.416;2023-04-27T07:21:46;11.68;;;5.45;;
38358;SDS011;42072;48.044;14.416;2023-04-27T07:24:13;13.18;;;5.55;;
38358;SDS011;42072;48.044;14.416;2023-04-27T07:26:40;8.68;;;5.45;;
38358;SDS011;42072;48.044;14.416;2023-04-27T07:29:08;10.45;;;5.93;;
38358;SDS011;42072;48.044;14.416;2023-04-27T07:31:52;12.87;;;5.10;;
38358;SDS011;42072;48.044;14.416;2023-04-27T07:34:21;9.23;;;5.22;;
38358;SDS011;42072;48.044;14.416;2023-04-27T07:36:48;9.75;;;5.10;;
38358;SDS011;42072;48.044;14.416;2023-04-27T07:39:16;11.20;;;5.38;;
38358;SDS011;42072;48.044;14.416;2023-04-27T07:41:44;9.38;;;5.43;;
38358;SDS011;42072;48.044;14.416;2023-04-27T07:44:11;9.75;;;5.88;;
38358;SDS011;42072;48.044;14.416;2023-04-27T07:46:38;7.00;;;4.70;;
38358;SDS011;42072;48.044;14.416;2023-04-27T07:49:06;7.20;;;4.90;;
38358;SDS011;42072;48.044;14.416;2023-04-27T07:51:33;10.23;;;4.97;;
38358;SDS011;42072;48.044;14.416;2023-04-27T07:54:01;7.60;;;4.90;;
38358;SDS011;42072;48.044;14.416;2023-04-27T07:56:29;9.48;;;4.55;;
38358;SDS011;42072;48.044;14.416;2023-04-27T07:58:56;5.65;;;4.60;;
38358;SDS011;42072;48.044;14.416;2023-04-27T08:01:24;7.53;;;4.60;;
38358;SDS011;42072;48.044;14.416;2023-04-27T08:03:51;10.13;;;4.22;;
38358;SDS011;42072;48.044;14.416;2023-04-27T08:06:19;10.95;;;5.85;;
38358;SDS011;42072;48.044;14.416;2023-04-27T08:08:47;8.25;;;4.88;;
38358;SDS011;42072;48.044;14.416;2023-04-27T08:11:14;6.63;;;4.57;;
38358;SDS011;42072;48.044;14.416;2023-04-27T08:13:42;7.72;;;4.70;;
38358;SDS011;42072;48.044;14.416;2023-04-27T08:16:09;13.52;;;4.95;;
38358;SDS011;42072;48.044;14.416;2023-04-27T08:18:36;9.25;;;4.95;;
38358;SDS011;42072;48.044;14.416;2023-04-27T08:21:03;6.13;;;4.70;;
38358;SDS011;42072;48.044;14.416;2023-04-27T08:23:31;6.82;;;5.03;;
38358;SDS011;42072;48.044;14.416;2023-04-27T08:25:58;7.68;;;4.70;;
38358;SDS011;42072;48.044;14.416;2023-04-27T08:28:26;5.78;;;4.45;;
38358;SDS011;42072;48.044;14.416;2023-04-27T08:30:53;6.55;;;4.47;;
38358;SDS011;42072;48.044;14.416;2023-04-27T08:33:20;8.85;;;4.50;;
38358;SDS011;42072;48.044;14.416;2023-04-27T08:35:48;9.80;;;5.43;;
38358;SDS011;42072;48.044;14.416;2023-04-27T08:38:15;13.10;;;5.32;;
38358;SDS011;42072;48.044;14.416;2023-04-27T08:40:42;9.30;;;4.63;;
38358;SDS011;42072;48.044;14.416;2023-04-27T08:43:09;7.82;;;4.57;;
38358;SDS011;42072;48.044;14.416;2023-04-27T08:45:36;8.35;;;4.90;;
38358;SDS011;42072;48.044;14.416;2023-04-27T08:48:12;9.95;;;5.20;;
38358;SDS011;42072;48.044;14.416;2023-04-27T08:50:40;9.50;;;4.72;;
38358;SDS011;42072;48.044;14.416;2023-04-27T08:53:17;6.78;;;4.40;;
38358;SDS011;42072;48.044;14.416;2023-04-27T08:55:48;6.57;;;4.80;;
38358;SDS011;42072;48.044;14.416;2023-04-27T08:58:15;7.43;;;4.30;;
38358;SDS011;42072;48.044;14.416;2023-04-27T09:00:43;7.95;;;4.30;;
38358;SDS011;42072;48.044;14.416;2023-04-27T09:03:24;11.63;;;4.63;;
38358;SDS011;42072;48.044;14.416;2023-04-27T09:05:52;6.78;;;4.65;;
38358;SDS011;42072;48.044;14.416;2023-04-27T09:08:40;9.10;;;4.50;;
38358;SDS011;42072;48.044;14.416;2023-04-27T09:11:12;6.18;;;4.30;;
38358;SDS011;42072;48.044;14.416;2023-04-27T09:13:41;6.13;;;4.03;;
38358;SDS011;42072;48.044;14.416;2023-04-27T09:16:12;9.07;;;4.00;;
38358;SDS011;42072;48.044;14.416;2023-04-27T09:18:41;8.80;;;4.30;;
38358;SDS011;42072;48.044;14.416;2023-04-27T09:21:09;7.57;;;4.00;;
38358;SDS011;42072;48.044;14.416;2023-04-27T09:23:37;5.47;;;3.97;;
38358;SDS011;42072;48.044;14.416;2023-04-27T09:26:07;4.63;;;3.63;;
38358;SDS011;42072;48.044;14.416;2023-04-27T09:28:38;8.38;;;4.47;;
38358;SDS011;42072;48.044;14.416;2023-04-27T09:31:06;5.75;;;3.97;;
38358;SDS011;42072;48.044;14.416;2023-04-27T09:33:34;8.55;;;4.18;;
38358;SDS011;42072;48.044;14.416;2023-04-27T09:36:03;9.40;;;4.43;;
38358;SDS011;42072;48.044;14.416;2023-04-27T09:38:31;6.50;;;4.28;;
38358;SDS011;42072;48.044;14.416;2023-04-27T09:40:59;7.43;;;4.65;;
38358;SDS011;42072;48.044;14.416;2023-04-27T09:43:27;8.15;;;3.90;;
38358;SDS011;42072;48.044;14.416;2023-04-27T09:45:55;8.00;;;3.70;;
38358;SDS011;42072;48.044;14.416;2023-04-27T09:48:24;9.73;;;4.40;;
38358;SDS011;42072;48.044;14.416;2023-04-27T09:50:52;5.57;;;3.75;;
38358;SDS011;42072;48.044;14.416;2023-04-27T09:53:29;7.53;;;4.10;;
38358;SDS011;42072;48.044;14.416;2023-04-27T10:07:06;6.47;;;3.75;;
38358;SDS011;42072;48.044;14.416;2023-04-27T10:09:36;3.90;;;2.80;;
38358;SDS011;42072;48.044;14.416;2023-04-27T10:14:46;4.68;;;3.33;;
38358;SDS011;42072;48.044;14.416;2023-04-27T10:20:03;7.65;;;3.90;;
38358;SDS011;42072;48.044;14.416;2023-04-27T10:22:39;6.07;;;3.20;;
38358;SDS011;42072;48.044;14.416;2023-04-27T10:25:24;5.88;;;3.10;;
38358;SDS011;42072;48.044;14.416;2023-04-27T10:27:57;8.38;;;3.33;;
38358;SDS011;42072;48.044;14.416;2023-04-27T10:30:36;5.65;;;3.72;;
38358;SDS011;42072;48.044;14.416;2023-04-27T10:33:05;5.95;;;3.00;;
38358;SDS011;42072;48.044;14.416;2023-04-27T10:35:35;7.05;;;3.88;;
38358;SDS011;42072;48.044;14.416;2023-04-27T10:38:05;8.82;;;3.20;;
38358;SDS011;42072;48.044;14.416;2023-04-27T10:40:37;10.93;;;3.60;;
38358;SDS011;42072;48.044;14.416;2023-04-27T10:43:08;5.10;;;3.03;;
38358;SDS011;42072;48.044;14.416;2023-04-27T10:45:40;7.00;;;3.15;;
38358;SDS011;42072;48.044;14.416;2023-04-27T10:48:10;4.82;;;3.05;;
38358;SDS011;42072;48.044;14.416;2023-04-27T10:50:40;6.35;;;3.05;;
38358;SDS011;42072;48.044;14.416;2023-04-27T10:53:08;5.70;;;3.17;;
38358;SDS011;42072;48.044;14.416;2023-04-27T10:55:36;5.28;;;3.00;;
38358;SDS011;42072;48.044;14.416;2023-04-27T10:58:03;6.82;;;3.70;;
38358;SDS011;42072;48.044;14.416;2023-04-27T11:00:32;5.97;;;3.35;;
38358;SDS011;42072;48.044;14.416;2023-04-27T11:03:11;4.50;;;3.20;;
38358;SDS011;42072;48.044;14.416;2023-04-27T11:05:42;4.88;;;3.10;;
38358;SDS011;42072;48.044;14.416;2023-04-27T11:08:17;8.10;;;3.15;;
38358;SDS011;42072;48.044;14.416;2023-04-27T11:10:47;5.45;;;3.20;;
38358;SDS011;42072;48.044;14.416;2023-04-27T11:13:17;4.40;;;3.10;;
38358;SDS011;42072;48.044;14.416;2023-04-27T11:15:50;7.30;;;3.20;;
38358;SDS011;42072;48.044;14.416;2023-04-27T11:18:21;5.70;;;3.20;;
38358;SDS011;42072;48.044;14.416;2023-04-27T11:20:53;6.85;;;3.25;;
38358;SDS011;42072;48.044;14.416;2023-04-27T11:23:33;5.22;;;3.13;;
38358;SDS011;42072;48.044;14.416;2023-04-27T11:26:10;8.90;;;3.22;;
38358;SDS011;42072;48.044;14.416;2023-04-27T11:28:58;4.82;;;3.20;;
38358;SDS011;42072;48.044;14.416;2023-04-27T11:31:42;8.20;;;3.40;;
38358;SDS011;42072;48.044;14.416;2023-04-27T11:34:15;7.32;;;4.15;;
38358;SDS011;42072;48.044;14.416;2023-04-27T11:37:00;4.93;;;3.25;;
38358;SDS011;42072;48.044;14.416;2023-04-27T11:39:33;5.70;;;3.15;;
38358;SDS011;42072;48.044;14.416;2023-04-27T11:42:21;6.15;;;3.65;;
38358;SDS011;42072;48.044;14.416;2023-04-27T11:44:59;6.70;;;3.33;;
38358;SDS011;42072;48.044;14.416;2023-04-27T11:47:28;6.25;;;3.40;;
38358;SDS011;42072;48.044;14.416;2023-04-27T11:49:57;7.22;;;3.20;;
38358;SDS011;42072;48.044;14.416;2023-04-27T11:52:27;6.13;;;3.00;;
38358;SDS011;42072;48.044;14.416;2023-04-27T11:54:55;4.75;;;3.00;;
38358;SDS011;42072;48.044;14.416;2023-04-27T11:57:25;7.70;;;2.92;;
38358;SDS011;42072;48.044;14.416;2023-04-27T11:59:57;6.90;;;3.20;;
38358;SDS011;42072;48.044;14.416;2023-04-27T12:02:26;8.30;;;3.70;;
38358;SDS011;42072;48.044;14.416;2023-04-27T12:04:57;4.90;;;3.15;;
38358;SDS011;42072;48.044;14.416;2023-04-27T12:07:26;5.07;;;3.13;;
38358;SDS011;42072;48.044;14.416;2023-04-27T12:09:53;6.13;;;3.75;;
38358;SDS011;42072;48.044;14.416;2023-04-27T12:12:22;6.85;;;3.80;;
38358;SDS011;42072;48.044;14.416;2023-04-27T12:14:50;6.03;;;3.17;;
38358;SDS011;42072;48.044;14.416;2023-04-27T12:17:17;6.70;;;4.43;;
38358;SDS011;42072;48.044;14.416;2023-04-27T12:19:44;4.30;;;2.97;;
38358;SDS011;42072;48.044;14.416;2023-04-27T12:22:12;7.47;;;3.50;;
38358;SDS011;42072;48.044;14.416;2023-04-27T12:24:39;5.82;;;3.60;;
38358;SDS011;42072;48.044;14.416;2023-04-27T12:27:07;5.03;;;3.05;;
38358;SDS011;42072;48.044;14.416;2023-04-27T12:29:34;8.88;;;3.67;;
38358;SDS011;42072;48.044;14.416;2023-04-27T12:32:02;6.30;;;3.60;;
38358;SDS011;42072;48.044;14.416;2023-04-27T12:34:30;8.95;;;4.00;;
38358;SDS011;42072;48.044;14.416;2023-04-27T12:36:58;6.47;;;3.75;;
38358;SDS011;42072;48.044;14.416;2023-04-27T12:39:25;6.93;;;3.95;;
38358;SDS011;42072;48.044;14.416;2023-04-27T12:41:52;7.25;;;3.40;;
38358;SDS011;42072;48.044;14.416;2023-04-27T12:44:20;5.70;;;3.20;;
38358;SDS011;42072;48.044;14.416;2023-04-27T12:46:48;5.70;;;3.33;;
38358;SDS011;42072;48.044;14.416;2023-04-27T12:49:16;10.00;;;3.50;;
38358;SDS011;42072;48.044;14.416;2023-04-27T12:51:43;8.20;;;3.92;;
38358;SDS011;42072;48.044;14.416;2023-04-27T12:54:12;6.32;;;3.90;;
38358;SDS011;42072;48.044;14.416;2023-04-27T12:56:40;6.60;;;3.42;;
38358;SDS011;42072;48.044;14.416;2023-04-27T12:59:07;6.38;;;4.13;;
38358;SDS011;42072;48.044;14.416;2023-04-27T13:01:35;9.27;;;4.57;;
38358;SDS011;42072;48.044;14.416;2023-04-27T13:04:03;5.93;;;3.65;;
38358;SDS011;42072;48.044;14.416;2023-04-27T13:06:32;6.15;;;4.10;;
38358;SDS011;42072;48.044;14.416;2023-04-27T13:08:59;8.20;;;4.75;;
38358;SDS011;42072;48.044;14.416;2023-04-27T13:11:27;7.70;;;3.80;;
38358;SDS011;42072;48.044;14.416;2023-04-27T13:13:55;7.20;;;3.42;;
38358;SDS011;42072;48.044;14.416;2023-04-27T13:16:22;7.25;;;4.18;;
38358;SDS011;42072;48.044;14.416;2023-04-27T13:18:51;6.40;;;4.38;;
38358;SDS011;42072;48.044;14.416;2023-04-27T13:21:20;6.57;;;3.95;;
38358;SDS011;42072;48.044;14.416;2023-04-27T13:23:48;7.70;;;4.18;;
38358;SDS011;42072;48.044;14.416;2023-04-27T13:26:17;8.65;;;4.45;;
38358;SDS011;42072;48.044;14.416;2023-04-27T13:28:44;6.70;;;4.28;;
38358;SDS011;42072;48.044;14.416;2023-04-27T13:31:11;5.72;;;3.92;;
38358;SDS011;42072;48.044;14.416;2023-04-27T13:33:39;7.38;;;4.15;;
38358;SDS011;42072;48.044;14.416;2023-04-27T13:36:09;7.70;;;4.22;;
38358;SDS011;42072;48.044;14.416;2023-04-27T13:38:37;8.75;;;4.10;;
38358;SDS011;42072;48.044;14.416;2023-04-27T13:41:05;6.15;;;3.70;;
38358;SDS011;42072;48.044;14.416;2023-04-27T13:43:32;7.28;;;4.10;;
38358;SDS011;42072;48.044;14.416;2023-04-27T13:46:00;7.63;;;4.20;;
38358;SDS011;42072;48.044;14.416;2023-04-27T13:48:28;8.02;;;4.70;;
38358;SDS011;42072;48.044;14.416;2023-04-27T13:50:56;9.10;;;4.45;;
38358;SDS011;42072;48.044;14.416;2023-04-27T13:53:23;8.00;;;4.25;;
38358;SDS011;42072;48.044;14.416;2023-04-27T13:55:52;6.68;;;4.10;;
38358;SDS011;42072;48.044;14.416;2023-04-27T13:58:20;8.02;;;4.43;;
38358;SDS011;42072;48.044;14.416;2023-04-27T14:00:50;6.65;;;4.50;;
38358;SDS011;42072;48.044;14.416;2023-04-27T14:03:19;10.45;;;4.85;;
38358;SDS011;42072;48.044;14.416;2023-04-27T14:05:49;6.43;;;4.00;;
38358;SDS011;42072;48.044;14.416;2023-04-27T14:08:18;7.15;;;4.22;;
38358;SDS011;42072;48.044;14.416;2023-04-27T14:10:47;8.55;;;4.88;;
38358;SDS011;42072;48.044;14.416;2023-04-27T14:13:14;8.75;;;4.95;;
38358;SDS011;42072;48.044;14.416;2023-04-27T14:15:43;7.18;;;4.80;;
38358;SDS011;42072;48.044;14.416;2023-04-27T14:18:11;7.50;;;4.68;;
38358;SDS011;42072;48.044;14.416;2023-04-27T14:20:39;10.40;;;4.32;;
38358;SDS011;42072;48.044;14.416;2023-04-27T14:23:08;4.13;;;3.45;;
38358;SDS011;42072;48.044;14.416;2023-04-27T14:25:36;8.13;;;4.28;;
38358;SDS011;42072;48.044;14.416;2023-04-27T14:28:04;6.93;;;4.30;;
38358;SDS011;42072;48.044;14.416;2023-04-27T14:30:32;7.07;;;4.18;;
38358;SDS011;42072;48.044;14.416;2023-04-27T14:33:00;6.97;;;4.50;;
38358;SDS011;42072;48.044;14.416;2023-04-27T14:35:28;6.20;;;3.95;;
38358;SDS011;42072;48.044;14.416;2023-04-27T14:37:55;6.57;;;3.83;;
38358;SDS011;42072;48.044;14.416;2023-04-27T14:40:28;8.07;;;4.20;;
38358;SDS011;42072;48.044;14.416;2023-04-27T14:42:56;6.75;;;4.18;;
38358;SDS011;42072;48.044;14.416;2023-04-27T14:45:24;8.43;;;4.25;;
38358;SDS011;42072;48.044;14.416;2023-04-27T14:48:02;5.25;;;4.57;;
38358;SDS011;42072;48.044;14.416;2023-04-27T14:50:29;9.90;;;4.78;;
38358;SDS011;42072;48.044;14.416;2023-04-27T14:52:57;7.00;;;4.60;;